Time;durP1;ratioP1;P1;durP2;ratioP2;P2;SDS_P1;SDS_P2;PMS_P1;PMS_P2;Temp;Humidity;BMP_temperature;BMP_pressure;BME280_temperature;BME280_humidity;BME280_pressure;Samples;Min_cycle;Max_cycle;Signal;HPM_P1;HPM_P2
2021/07/10 00:01:23;;;;;;;3.92;0.70;;;;;;;;;;4983476;28;20076;-76
2021/07/10 00:03:48;;;;;;;1.50;0.70;;;;;;;;;;4986355;28;20037;-76
2021/07/10 00:06:14;;;;;;;1.63;0.70;;;;;;;;;;4979836;28;20038;-76
2021/07/10 00:08:39;;;;;;;1.60;0.93;;;;;;;;;;4967677;28;20053;-76
2021/07/10 00:11:05;;;;;;;1.02;1.02;;;;;;;;;;4998614;28;20030;-76
2021/07/10 00:13:31;;;;;;;6.03;1.50;;;;;;;;;;4998566;28;20394;-76
2021/07/10 00:15:57;;;;;;;0.90;0.90;;;;;;;;;;4986012;28;20047;-77
2021/07/10 00:18:22;;;;;;;2.97;1.10;;;;;;;;;;4980746;28;20049;-75
2021/07/10 00:20:49;;;;;;;1.60;1.00;;;;;;;;;;4985869;28;20042;-76
2021/07/10 00:23:15;;;;;;;1.75;0.98;;;;;;;;;;4988615;28;20026;-76
2021/07/10 00:25:41;;;;;;;1.83;0.82;;;;;;;;;;4989536;28;20037;-75
2021/07/10 00:28:07;;;;;;;3.90;1.00;;;;;;;;;;4982384;28;20038;-76
2021/07/10 00:30:35;;;;;;;1.98;0.77;;;;;;;;;;4986019;28;20046;-74
2021/07/10 00:33:02;;;;;;;1.50;0.80;;;;;;;;;;4985439;28;20186;-75
2021/07/10 00:35:28;;;;;;;1.92;0.93;;;;;;;;;;4986790;28;20073;-75
2021/07/10 00:37:53;;;;;;;2.08;1.00;;;;;;;;;;4984579;28;20070;-74
2021/07/10 00:40:19;;;;;;;3.38;1.10;;;;;;;;;;4969660;28;20031;-74
2021/07/10 00:42:45;;;;;;;1.35;0.95;;;;;;;;;;4983759;28;20026;-77
2021/07/10 00:45:13;;;;;;;2.97;1.25;;;;;;;;;;4986767;28;20042;-76
2021/07/10 00:47:39;;;;;;;3.70;1.10;;;;;;;;;;4983133;28;20034;-76
2021/07/10 00:50:25;;;;;;;2.78;1.10;;;;;;;;;;4984438;28;20058;-75
2021/07/10 00:52:51;;;;;;;2.05;1.15;;;;;;;;;;4982928;28;20567;-76
2021/07/10 00:55:18;;;;;;;1.85;1.30;;;;;;;;;;4987459;28;20135;-75
2021/07/10 00:57:45;;;;;;;3.30;1.60;;;;;;;;;;4985570;28;20493;-76
2021/07/10 01:00:13;;;;;;;4.57;1.83;;;;;;;;;;4998199;28;20062;-77
2021/07/10 01:02:43;;;;;;;3.72;2.30;;;;;;;;;;4984795;28;20034;-75
2021/07/10 01:05:15;;;;;;;2.60;2.03;;;;;;;;;;4985975;28;20386;-75
2021/07/10 01:07:41;;;;;;;3.45;2.00;;;;;;;;;;4986588;28;20029;-75
2021/07/10 01:10:12;;;;;;;5.03;2.53;;;;;;;;;;4969759;28;20034;-75
2021/07/10 01:12:39;;;;;;;4.88;2.88;;;;;;;;;;4989271;28;20040;-76
2021/07/10 01:15:07;;;;;;;7.82;3.75;;;;;;;;;;4973360;28;20053;-75
2021/07/10 01:17:33;;;;;;;5.30;3.47;;;;;;;;;;4973461;28;20570;-75
2021/07/10 01:20:09;;;;;;;4.72;3.20;;;;;;;;;;4988217;28;20050;-75
2021/07/10 01:22:35;;;;;;;4.63;3.10;;;;;;;;;;4987076;28;20029;-76
2021/07/10 01:25:02;;;;;;;4.18;2.90;;;;;;;;;;4968319;28;20034;-75
2021/07/10 01:27:28;;;;;;;4.95;3.00;;;;;;;;;;4988167;28;20571;-74
2021/07/10 01:29:55;;;;;;;5.75;3.28;;;;;;;;;;4984695;28;20125;-75
2021/07/10 01:32:21;;;;;;;4.13;2.60;;;;;;;;;;4982605;28;20037;-76
2021/07/10 01:34:48;;;;;;;4.15;3.03;;;;;;;;;;4986225;28;20031;-75
2021/07/10 01:37:15;;;;;;;5.25;2.30;;;;;;;;;;4985691;28;20034;-75
2021/07/10 01:39:41;;;;;;;4.07;2.17;;;;;;;;;;4983557;28;20030;-76
2021/07/10 01:42:07;;;;;;;4.18;2.72;;;;;;;;;;4980250;28;20654;-76
2021/07/10 01:44:33;;;;;;;3.03;2.22;;;;;;;;;;4985888;28;20030;-76
2021/07/10 01:46:59;;;;;;;3.10;2.00;;;;;;;;;;4986666;28;20042;-76
2021/07/10 01:49:24;;;;;;;5.65;2.25;;;;;;;;;;4979450;28;20025;-76
2021/07/10 01:51:50;;;;;;;4.10;2.25;;;;;;;;;;4980272;28;20544;-75
2021/07/10 01:54:15;;;;;;;5.95;2.00;;;;;;;;;;4983552;28;20026;-76
2021/07/10 01:56:41;;;;;;;5.43;2.28;;;;;;;;;;4986866;28;20034;-76
2021/07/10 01:59:06;;;;;;;7.30;2.25;;;;;;;;;;4982262;28;20141;-76
2021/07/10 02:01:32;;;;;;;4.60;2.10;;;;;;;;;;4991685;28;20141;-76
2021/07/10 02:03:59;;;;;;;4.45;2.00;;;;;;;;;;4982008;28;20113;-75
2021/07/10 02:06:25;;;;;;;4.40;2.10;;;;;;;;;;4982312;28;20382;-76
2021/07/10 02:08:50;;;;;;;3.38;2.05;;;;;;;;;;4980730;28;20081;-76
2021/07/10 02:11:16;;;;;;;4.78;2.05;;;;;;;;;;4982897;28;20026;-76
2021/07/10 02:13:42;;;;;;;3.35;2.17;;;;;;;;;;4965358;28;20056;-76
2021/07/10 02:16:09;;;;;;;5.35;2.45;;;;;;;;;;4986307;28;20068;-76
2021/07/10 02:18:34;;;;;;;5.68;2.22;;;;;;;;;;4966351;28;20500;-76
2021/07/10 02:21:00;;;;;;;3.58;2.15;;;;;;;;;;4966949;28;20038;-76
2021/07/10 02:23:26;;;;;;;4.93;2.28;;;;;;;;;;4981866;28;20030;-78
2021/07/10 02:25:51;;;;;;;2.53;1.98;;;;;;;;;;4981685;28;20035;-78
2021/07/10 02:28:17;;;;;;;7.25;2.38;;;;;;;;;;4983944;28;20030;-78
2021/07/10 02:30:42;;;;;;;2.53;1.70;;;;;;;;;;4983143;28;20038;-79
2021/07/10 02:33:08;;;;;;;3.22;1.92;;;;;;;;;;4985974;28;20038;-77
2021/07/10 02:35:34;;;;;;;5.70;1.75;;;;;;;;;;4986642;28;20030;-78
2021/07/10 02:38:00;;;;;;;3.83;1.77;;;;;;;;;;4983837;28;20517;-78
2021/07/10 02:40:26;;;;;;;4.95;1.95;;;;;;;;;;4987104;28;20041;-78
2021/07/10 02:42:51;;;;;;;4.15;1.80;;;;;;;;;;4983796;28;20065;-78
2021/07/10 02:45:19;;;;;;;2.55;1.85;;;;;;;;;;4984506;28;20034;-78
2021/07/10 02:47:45;;;;;;;9.70;2.75;;;;;;;;;;4981151;28;20389;-79
2021/07/10 02:50:14;;;;;;;3.60;1.80;;;;;;;;;;4987209;28;20026;-79
2021/07/10 02:52:39;;;;;;;3.38;1.77;;;;;;;;;;4983572;28;20030;-79
2021/07/10 02:55:06;;;;;;;5.18;2.00;;;;;;;;;;4977925;28;20037;-78
2021/07/10 02:57:32;;;;;;;5.07;1.60;;;;;;;;;;4982368;28;20044;-78
2021/07/10 02:59:57;;;;;;;7.57;2.15;;;;;;;;;;4981776;28;20034;-79
2021/07/10 03:02:23;;;;;;;3.97;2.08;;;;;;;;;;4968898;28;20858;-78
2021/07/10 03:04:48;;;;;;;10.57;2.40;;;;;;;;;;4986000;28;20049;-78
2021/07/10 03:07:14;;;;;;;3.80;2.00;;;;;;;;;;4962063;28;20669;-78
2021/07/10 03:09:39;;;;;;;4.90;2.00;;;;;;;;;;4966930;28;20054;-78
2021/07/10 03:12:06;;;;;;;2.75;1.85;;;;;;;;;;4982031;28;20552;-78
2021/07/10 03:14:31;;;;;;;3.55;1.95;;;;;;;;;;4984310;28;20026;-78
2021/07/10 03:16:57;;;;;;;5.90;1.85;;;;;;;;;;4984144;28;20101;-79
2021/07/10 03:19:22;;;;;;;4.10;1.77;;;;;;;;;;4965533;28;20059;-78
2021/07/10 03:21:48;;;;;;;6.80;2.22;;;;;;;;;;4981763;28;20084;-78
2021/07/10 03:24:14;;;;;;;5.00;2.30;;;;;;;;;;4983787;28;20504;-77
2021/07/10 03:26:40;;;;;;;6.47;2.13;;;;;;;;;;4983715;28;20026;-77
2021/07/10 03:29:05;;;;;;;5.72;2.40;;;;;;;;;;4989949;28;20022;-75
2021/07/10 03:31:31;;;;;;;5.35;2.47;;;;;;;;;;4986539;28;20069;-75
2021/07/10 03:33:56;;;;;;;5.50;2.50;;;;;;;;;;4987664;28;20026;-75
2021/07/10 03:36:25;;;;;;;4.68;2.40;;;;;;;;;;4987674;28;20037;-75
2021/07/10 03:38:51;;;;;;;5.40;2.38;;;;;;;;;;4987844;28;20070;-76
2021/07/10 03:41:17;;;;;;;5.05;2.03;;;;;;;;;;4988269;28;20034;-76
2021/07/10 03:43:43;;;;;;;4.85;2.10;;;;;;;;;;4999659;28;20544;-76
2021/07/10 03:46:09;;;;;;;4.68;2.05;;;;;;;;;;4982971;28;20165;-76
2021/07/10 03:48:35;;;;;;;7.75;2.88;;;;;;;;;;4989366;28;20033;-75
2021/07/10 03:51:01;;;;;;;5.97;2.10;;;;;;;;;;4992599;28;20026;-75
2021/07/10 03:53:27;;;;;;;5.30;2.30;;;;;;;;;;4954095;28;20509;-76
2021/07/10 03:55:52;;;;;;;6.97;2.70;;;;;;;;;;5001802;28;20109;-75
2021/07/10 03:58:18;;;;;;;5.10;2.30;;;;;;;;;;4985444;28;20132;-76
2021/07/10 04:00:43;;;;;;;3.22;2.22;;;;;;;;;;4984832;28;20026;-76
2021/07/10 04:03:09;;;;;;;6.13;2.33;;;;;;;;;;4988221;28;20505;-76
2021/07/10 04:05:35;;;;;;;9.75;2.67;;;;;;;;;;4981036;28;20035;-76
2021/07/10 04:08:01;;;;;;;8.18;2.20;;;;;;;;;;4987423;28;20444;-76
2021/07/10 04:10:27;;;;;;;8.57;2.10;;;;;;;;;;4987214;28;20121;-75
2021/07/10 04:12:52;;;;;;;4.40;2.13;;;;;;;;;;4987321;28;20118;-77
2021/07/10 04:15:19;;;;;;;5.03;2.00;;;;;;;;;;4993011;28;20073;-76
2021/07/10 04:17:45;;;;;;;4.60;2.10;;;;;;;;;;4989213;28;20110;-75
2021/07/10 04:20:11;;;;;;;8.57;2.15;;;;;;;;;;4987436;28;20038;-76
2021/07/10 04:22:38;;;;;;;6.45;2.10;;;;;;;;;;4984616;28;20485;-77
2021/07/10 04:25:06;;;;;;;4.78;1.77;;;;;;;;;;4987896;28;20070;-78
2021/07/10 04:27:34;;;;;;;3.60;2.05;;;;;;;;;;4987656;28;20109;-78
2021/07/10 04:30:01;;;;;;;3.08;1.92;;;;;;;;;;4971874;28;20026;-78
2021/07/10 04:32:27;;;;;;;3.90;2.30;;;;;;;;;;4987837;28;20045;-77
2021/07/10 04:34:52;;;;;;;3.63;2.00;;;;;;;;;;5001449;28;20038;-77
2021/07/10 04:37:18;;;;;;;4.88;2.03;;;;;;;;;;4966591;28;20122;-78
2021/07/10 04:39:43;;;;;;;4.53;1.92;;;;;;;;;;4977757;28;20130;-78
2021/07/10 04:42:09;;;;;;;3.63;2.05;;;;;;;;;;4988821;28;20057;-78
2021/07/10 04:44:35;;;;;;;2.97;1.80;;;;;;;;;;4994749;28;20100;-78
2021/07/10 04:47:01;;;;;;;4.22;1.90;;;;;;;;;;4986700;28;20031;-78
2021/07/10 04:49:27;;;;;;;3.25;1.92;;;;;;;;;;4985345;28;20021;-78
2021/07/10 04:51:52;;;;;;;6.25;1.73;;;;;;;;;;4986765;28;20042;-78
2021/07/10 04:54:18;;;;;;;5.75;2.05;;;;;;;;;;4986408;28;20043;-75
2021/07/10 04:56:43;;;;;;;2.65;1.75;;;;;;;;;;4987812;28;20085;-76
2021/07/10 04:59:09;;;;;;;3.13;1.70;;;;;;;;;;4989207;28;20049;-76
2021/07/10 05:01:34;;;;;;;5.35;1.70;;;;;;;;;;4987277;28;20038;-76
2021/07/10 05:04:00;;;;;;;8.93;1.83;;;;;;;;;;4986267;28;20126;-76
2021/07/10 05:06:25;;;;;;;3.92;1.90;;;;;;;;;;4985347;28;20696;-76
2021/07/10 05:08:51;;;;;;;3.65;1.83;;;;;;;;;;4979926;28;20490;-75
2021/07/10 05:11:17;;;;;;;7.93;1.65;;;;;;;;;;4981902;28;20861;-74
2021/07/10 05:13:43;;;;;;;3.08;1.70;;;;;;;;;;4981195;28;20480;-76
2021/07/10 05:16:08;;;;;;;2.83;1.77;;;;;;;;;;4985850;28;20134;-75
2021/07/10 05:18:34;;;;;;;2.47;1.75;;;;;;;;;;4987132;28;20106;-76
2021/07/10 05:20:59;;;;;;;6.45;1.40;;;;;;;;;;4987511;28;20100;-76
2021/07/10 05:23:25;;;;;;;2.65;1.60;;;;;;;;;;4988199;28;20045;-76
2021/07/10 05:25:50;;;;;;;3.95;1.70;;;;;;;;;;4981044;28;20034;-75
2021/07/10 05:28:16;;;;;;;3.03;1.67;;;;;;;;;;4982068;28;20042;-77
2021/07/10 05:30:41;;;;;;;2.33;1.70;;;;;;;;;;4983519;28;20567;-77
2021/07/10 05:33:07;;;;;;;3.20;1.50;;;;;;;;;;4987972;28;20041;-75
2021/07/10 05:35:33;;;;;;;4.63;1.65;;;;;;;;;;4987197;28;20114;-75
2021/07/10 05:37:59;;;;;;;4.30;1.70;;;;;;;;;;4969594;28;20413;-75
2021/07/10 05:40:24;;;;;;;3.67;1.70;;;;;;;;;;4971128;28;20053;-76
2021/07/10 05:42:50;;;;;;;2.30;1.38;;;;;;;;;;4986756;28;20072;-76
2021/07/10 05:45:19;;;;;;;2.70;1.70;;;;;;;;;;4974308;28;20039;-77
2021/07/10 05:47:45;;;;;;;4.72;1.70;;;;;;;;;;4987713;28;20031;-75
2021/07/10 05:50:12;;;;;;;5.25;2.17;;;;;;;;;;4984056;28;20496;-76
2021/07/10 05:52:38;;;;;;;7.30;1.80;;;;;;;;;;4985803;28;20038;-76
2021/07/10 05:55:05;;;;;;;9.38;2.88;;;;;;;;;;5004934;28;20034;-76
2021/07/10 05:57:31;;;;;;;1.80;1.33;;;;;;;;;;4983387;28;20038;-76
2021/07/10 05:59:56;;;;;;;2.47;1.58;;;;;;;;;;4986110;28;20061;-76
2021/07/10 06:02:22;;;;;;;4.72;1.70;;;;;;;;;;4967676;28;20072;-76
2021/07/10 06:04:47;;;;;;;2.40;1.40;;;;;;;;;;4968260;28;20027;-76
2021/07/10 06:07:13;;;;;;;2.00;1.50;;;;;;;;;;4985334;28;20030;-75
2021/07/10 06:09:38;;;;;;;5.85;1.80;;;;;;;;;;4988162;28;20045;-75
2021/07/10 06:12:04;;;;;;;2.83;1.45;;;;;;;;;;4987204;28;20058;-75
2021/07/10 06:14:30;;;;;;;4.68;1.98;;;;;;;;;;4986761;28;20118;-77
2021/07/10 06:16:55;;;;;;;5.82;1.98;;;;;;;;;;4986038;28;20063;-77
2021/07/10 06:19:21;;;;;;;5.13;1.48;;;;;;;;;;4983864;28;20371;-76
2021/07/10 06:21:47;;;;;;;4.60;1.63;;;;;;;;;;4971741;28;20412;-77
2021/07/10 06:24:12;;;;;;;3.45;1.80;;;;;;;;;;4984338;28;20038;-76
2021/07/10 06:26:38;;;;;;;2.25;1.73;;;;;;;;;;4984590;28;20075;-76
2021/07/10 06:29:03;;;;;;;2.33;1.45;;;;;;;;;;4983345;28;20109;-75
2021/07/10 06:31:29;;;;;;;3.75;1.80;;;;;;;;;;4984635;28;20026;-76
2021/07/10 06:33:55;;;;;;;5.32;1.67;;;;;;;;;;5000811;28;20042;-76
2021/07/10 06:36:20;;;;;;;1.95;1.40;;;;;;;;;;4983780;28;20480;-76
2021/07/10 06:38:46;;;;;;;4.25;1.60;;;;;;;;;;4982678;28;20035;-75
2021/07/10 06:41:11;;;;;;;5.22;1.42;;;;;;;;;;4986350;28;20033;-75
2021/07/10 06:43:37;;;;;;;4.50;1.45;;;;;;;;;;4992272;28;20045;-74
2021/07/10 06:46:06;;;;;;;6.93;1.75;;;;;;;;;;4988116;28;20401;-74
2021/07/10 06:48:31;;;;;;;3.28;1.63;;;;;;;;;;4988240;28;20027;-74
2021/07/10 06:50:57;;;;;;;4.43;1.58;;;;;;;;;;4988578;28;20441;-77
2021/07/10 06:53:22;;;;;;;4.90;1.75;;;;;;;;;;4986682;28;20042;-77
2021/07/10 06:55:49;;;;;;;4.55;1.70;;;;;;;;;;4981427;28;20034;-74
2021/07/10 06:58:15;;;;;;;3.97;1.45;;;;;;;;;;4970904;28;20038;-76
2021/07/10 07:00:40;;;;;;;2.00;1.38;;;;;;;;;;4983002;28;20490;-76
2021/07/10 07:03:06;;;;;;;3.92;1.42;;;;;;;;;;4985998;28;20068;-75
2021/07/10 07:05:31;;;;;;;5.60;1.55;;;;;;;;;;4971781;28;20034;-75
2021/07/10 07:07:57;;;;;;;7.63;1.75;;;;;;;;;;4969881;28;20045;-75
2021/07/10 07:10:22;;;;;;;1.25;1.13;;;;;;;;;;4988995;28;20006;-75
2021/07/10 07:12:48;;;;;;;3.08;1.50;;;;;;;;;;4968652;28;20049;-76
2021/07/10 07:15:15;;;;;;;2.55;1.50;;;;;;;;;;4984559;28;20114;-75
2021/07/10 07:17:40;;;;;;;3.35;1.77;;;;;;;;;;4993135;28;20030;-75
2021/07/10 07:20:08;;;;;;;3.33;1.65;;;;;;;;;;4984068;28;20038;-76
2021/07/10 07:22:34;;;;;;;2.30;1.42;;;;;;;;;;4984626;28;20032;-76
2021/07/10 07:25:00;;;;;;;3.47;1.45;;;;;;;;;;4981087;28;20150;-77
2021/07/10 07:27:25;;;;;;;4.50;1.38;;;;;;;;;;4973890;28;20046;-77
2021/07/10 07:29:50;;;;;;;2.78;1.52;;;;;;;;;;4980983;28;20507;-77
2021/07/10 07:32:16;;;;;;;3.92;1.27;;;;;;;;;;4982518;28;20033;-76
2021/07/10 07:34:42;;;;;;;2.55;1.40;;;;;;;;;;4983354;28;20057;-75
2021/07/10 07:37:07;;;;;;;3.53;1.60;;;;;;;;;;4995242;28;20061;-75
2021/07/10 07:39:33;;;;;;;4.80;1.17;;;;;;;;;;4984640;28;20040;-76
2021/07/10 07:41:58;;;;;;;3.28;1.55;;;;;;;;;;4972439;28;20061;-76
2021/07/10 07:44:23;;;;;;;1.70;1.33;;;;;;;;;;4983452;28;20076;-77
2021/07/10 07:46:49;;;;;;;4.35;1.80;;;;;;;;;;4978031;28;20026;-75
2021/07/10 07:49:14;;;;;;;2.30;1.20;;;;;;;;;;4987263;28;20217;-75
2021/07/10 07:51:40;;;;;;;1.75;1.10;;;;;;;;;;4984333;28;20033;-75
2021/07/10 07:54:05;;;;;;;2.65;1.27;;;;;;;;;;4983734;28;20038;-80
2021/07/10 07:56:31;;;;;;;3.40;1.20;;;;;;;;;;4987570;28;20042;-79
2021/07/10 07:58:56;;;;;;;2.00;1.23;;;;;;;;;;4980325;28;20047;-78
2021/07/10 08:01:22;;;;;;;2.58;1.40;;;;;;;;;;4983101;28;20034;-80
2021/07/10 08:03:48;;;;;;;2.35;1.08;;;;;;;;;;4984461;28;20080;-78
2021/07/10 08:06:13;;;;;;;2.70;1.33;;;;;;;;;;4982825;28;20462;-78
2021/07/10 08:08:39;;;;;;;3.13;1.50;;;;;;;;;;4961607;28;20397;-79
2021/07/10 08:11:09;;;;;;;4.35;1.33;;;;;;;;;;4980386;28;20486;-78
2021/07/10 08:13:35;;;;;;;3.58;1.30;;;;;;;;;;4984501;28;20030;-77
2021/07/10 08:16:01;;;;;;;4.97;1.40;;;;;;;;;;4956118;28;20413;-78
2021/07/10 08:18:26;;;;;;;1.95;1.10;;;;;;;;;;4982887;28;20030;-78
2021/07/10 08:20:53;;;;;;;3.53;1.38;;;;;;;;;;4987992;28;20042;-78
2021/07/10 08:23:18;;;;;;;2.25;1.25;;;;;;;;;;4986900;28;20030;-75
2021/07/10 08:25:45;;;;;;;2.88;1.20;;;;;;;;;;4981784;28;20026;-75
2021/07/10 08:28:10;;;;;;;3.08;1.00;;;;;;;;;;4979058;28;20076;-76
2021/07/10 08:30:36;;;;;;;3.67;1.33;;;;;;;;;;4983655;28;20662;-76
2021/07/10 08:33:02;;;;;;;2.70;1.23;;;;;;;;;;4988893;28;20038;-75
2021/07/10 08:35:27;;;;;;;2.33;1.25;;;;;;;;;;4985598;28;20045;-75
2021/07/10 08:37:53;;;;;;;4.18;1.25;;;;;;;;;;4986142;28;20096;-75
2021/07/10 08:40:20;;;;;;;5.07;1.15;;;;;;;;;;4984496;28;20711;-75
2021/07/10 08:42:46;;;;;;;3.25;1.30;;;;;;;;;;4972603;28;20081;-75
2021/07/10 08:45:13;;;;;;;3.25;1.30;;;;;;;;;;4990369;28;20105;-75
2021/07/10 08:47:42;;;;;;;5.07;2.38;;;;;;;;;;4986168;28;20405;-75
2021/07/10 08:50:10;;;;;;;1.80;1.23;;;;;;;;;;4983382;28;20033;-76
2021/07/10 08:52:37;;;;;;;4.68;1.30;;;;;;;;;;4990312;28;20026;-75
2021/07/10 08:55:05;;;;;;;11.50;1.60;;;;;;;;;;4990602;28;20054;-74
2021/07/10 08:57:34;;;;;;;5.85;1.77;;;;;;;;;;4988526;28;20022;-75
2021/07/10 09:00:01;;;;;;;2.70;1.40;;;;;;;;;;4986772;28;20022;-75
2021/07/10 09:02:26;;;;;;;4.32;1.50;;;;;;;;;;4992271;28;20035;-75
2021/07/10 09:04:52;;;;;;;3.55;1.27;;;;;;;;;;4972320;28;20104;-74
2021/07/10 09:07:18;;;;;;;2.15;1.20;;;;;;;;;;5018650;28;20044;-75
2021/07/10 09:09:45;;;;;;;2.17;1.10;;;;;;;;;;4981104;28;20107;-74
2021/07/10 09:12:13;;;;;;;5.20;1.17;;;;;;;;;;4989485;28;20108;-75
2021/07/10 09:14:39;;;;;;;2.38;1.10;;;;;;;;;;4989802;28;20500;-75
2021/07/10 09:17:20;;;;;;;1.20;1.10;;;;;;;;;;4973596;28;20046;-74
2021/07/10 09:19:47;;;;;;;2.33;1.00;;;;;;;;;;4989546;28;20049;-75
2021/07/10 09:22:23;;;;;;;6.53;1.10;;;;;;;;;;4985482;28;20458;-76
2021/07/10 09:24:49;;;;;;;2.70;1.40;;;;;;;;;;4986341;28;20053;-75
2021/07/10 09:27:16;;;;;;;4.43;1.15;;;;;;;;;;4985222;28;20070;-75
2021/07/10 09:29:45;;;;;;;1.88;1.10;;;;;;;;;;5005058;28;20489;-74
2021/07/10 09:32:19;;;;;;;2.58;1.40;;;;;;;;;;4987380;28;20437;-74
2021/07/10 09:34:58;;;;;;;3.47;1.27;;;;;;;;;;4989627;28;20041;-75
2021/07/10 09:37:26;;;;;;;3.17;1.27;;;;;;;;;;4987227;28;20117;-75
2021/07/10 09:40:02;;;;;;;1.98;1.08;;;;;;;;;;4989391;28;20113;-74
2021/07/10 09:42:34;;;;;;;2.10;1.00;;;;;;;;;;4987808;28;20034;-76
2021/07/10 09:45:00;;;;;;;4.80;1.40;;;;;;;;;;4991392;28;20104;-74
2021/07/10 09:47:27;;;;;;;2.33;1.23;;;;;;;;;;5009974;28;20519;-75
2021/07/10 09:49:53;;;;;;;1.60;1.13;;;;;;;;;;4987381;28;20109;-74
2021/07/10 09:52:22;;;;;;;3.55;1.50;;;;;;;;;;4985697;28;20081;-74
2021/07/10 09:55:00;;;;;;;3.78;1.48;;;;;;;;;;5007996;28;20045;-74
2021/07/10 09:57:27;;;;;;;3.05;1.65;;;;;;;;;;4997272;28;20073;-75
2021/07/10 10:00:03;;;;;;;4.60;1.50;;;;;;;;;;4996529;28;20030;-74
2021/07/10 10:02:32;;;;;;;5.38;1.70;;;;;;;;;;4997111;28;20026;-75
2021/07/10 10:05:06;;;;;;;2.60;1.42;;;;;;;;;;5000091;28;20080;-74
2021/07/10 10:07:47;;;;;;;4.25;1.48;;;;;;;;;;4999633;28;20092;-75
2021/07/10 10:10:45;;;;;;;2.40;1.52;;;;;;;;;;4982596;28;20564;-75
2021/07/10 10:13:14;;;;;;;3.17;1.90;;;;;;;;;;4979247;28;20045;-75
2021/07/10 10:15:49;;;;;;;4.28;2.10;;;;;;;;;;4990322;28;20042;-75
2021/07/10 10:18:27;;;;;;;4.18;1.67;;;;;;;;;;4999809;28;20026;-75
2021/07/10 10:20:53;;;;;;;5.68;2.22;;;;;;;;;;4993083;28;20184;-74
2021/07/10 10:23:20;;;;;;;4.78;1.85;;;;;;;;;;4980394;28;20034;-75
2021/07/10 10:25:47;;;;;;;2.97;1.80;;;;;;;;;;4981601;28;20038;-74
2021/07/10 10:28:18;;;;;;;3.20;1.50;;;;;;;;;;4980826;28;20062;-74
2021/07/10 10:30:46;;;;;;;4.30;2.05;;;;;;;;;;4988980;28;20108;-75
2021/07/10 10:33:12;;;;;;;2.67;1.63;;;;;;;;;;4988162;28;20030;-78
2021/07/10 10:35:37;;;;;;;3.80;2.00;;;;;;;;;;4990342;28;20125;-78
2021/07/10 10:38:04;;;;;;;13.98;2.30;;;;;;;;;;4989667;28;20034;-78
2021/07/10 10:40:32;;;;;;;3.55;1.67;;;;;;;;;;4994119;28;20077;-78
2021/07/10 10:43:01;;;;;;;2.95;1.50;;;;;;;;;;4992689;28;20042;-78
2021/07/10 10:45:35;;;;;;;4.13;1.58;;;;;;;;;;4986397;28;20030;-78
2021/07/10 10:48:01;;;;;;;2.40;1.60;;;;;;;;;;4985013;28;20072;-78
2021/07/10 10:50:32;;;;;;;3.33;1.50;;;;;;;;;;4986786;28;20058;-79
2021/07/10 10:52:58;;;;;;;1.95;1.60;;;;;;;;;;4983781;28;20596;-78
2021/07/10 10:55:32;;;;;;;9.80;1.90;;;;;;;;;;4986989;28;20506;-78
2021/07/10 10:58:01;;;;;;;2.75;1.73;;;;;;;;;;4983043;28;20065;-78
2021/07/10 11:00:35;;;;;;;5.57;1.70;;;;;;;;;;5009930;28;20018;-78
2021/07/10 11:03:14;;;;;;;2.30;1.60;;;;;;;;;;4982555;28;20026;-74
2021/07/10 11:05:48;;;;;;;10.35;1.90;;;;;;;;;;4988518;28;20041;-74
2021/07/10 11:08:19;;;;;;;2.60;1.45;;;;;;;;;;4996964;28;20034;-75
2021/07/10 11:10:54;;;;;;;2.63;1.67;;;;;;;;;;4993730;28;20555;-76
2021/07/10 11:13:36;;;;;;;2.35;1.52;;;;;;;;;;4986825;28;20034;-76
2021/07/10 11:16:16;;;;;;;4.30;1.58;;;;;;;;;;4983308;28;20039;-75
2021/07/10 11:18:58;;;;;;;4.00;1.50;;;;;;;;;;4982284;28;20056;-75
2021/07/10 11:21:34;;;;;;;3.17;1.40;;;;;;;;;;4989030;28;20023;-75
2021/07/10 11:24:20;;;;;;;3.42;1.88;;;;;;;;;;4980884;28;20053;-75
2021/07/10 11:26:55;;;;;;;2.95;1.63;;;;;;;;;;4987910;28;20235;-75
2021/07/10 11:29:22;;;;;;;3.13;1.42;;;;;;;;;;4994571;28;20049;-75
2021/07/10 11:31:48;;;;;;;3.85;1.35;;;;;;;;;;4991554;28;20142;-75
2021/07/10 11:34:18;;;;;;;3.25;1.48;;;;;;;;;;4986140;28;20030;-75
2021/07/10 11:36:53;;;;;;;5.57;1.42;;;;;;;;;;4986396;28;20411;-75
2021/07/10 11:39:24;;;;;;;3.20;1.20;;;;;;;;;;4990258;28;20118;-75
2021/07/10 11:41:58;;;;;;;2.40;1.25;;;;;;;;;;4985467;28;20506;-75
2021/07/10 11:44:29;;;;;;;1.75;1.15;;;;;;;;;;4999580;28;20045;-75
2021/07/10 11:46:55;;;;;;;5.38;1.30;;;;;;;;;;4981966;28;20056;-75
2021/07/10 11:49:35;;;;;;;1.00;0.95;;;;;;;;;;4994770;28;20050;-75
2021/07/10 11:52:15;;;;;;;3.30;1.00;;;;;;;;;;4980714;28;20045;-76
2021/07/10 11:54:52;;;;;;;2.65;1.00;;;;;;;;;;5002835;28;20025;-75
2021/07/10 11:57:19;;;;;;;3.30;1.10;;;;;;;;;;4987384;28;20040;-76
2021/07/10 11:59:45;;;;;;;1.50;1.15;;;;;;;;;;4986863;28;20031;-75
2021/07/10 12:02:18;;;;;;;2.53;1.10;;;;;;;;;;4988687;28;20037;-76
2021/07/10 12:05:06;;;;;;;2.88;0.90;;;;;;;;;;4986076;28;20034;-75
2021/07/10 12:07:35;;;;;;;3.40;1.55;;;;;;;;;;4996562;28;20456;-75
2021/07/10 12:10:05;;;;;;;3.42;0.85;;;;;;;;;;4985542;28;20026;-76
2021/07/10 12:12:30;;;;;;;2.00;1.33;;;;;;;;;;4988348;28;20023;-76
2021/07/10 12:14:58;;;;;;;1.88;1.40;;;;;;;;;;4985520;28;20044;-76
2021/07/10 12:17:25;;;;;;;2.80;1.17;;;;;;;;;;4982995;28;20015;-75
2021/07/10 12:19:52;;;;;;;3.22;1.02;;;;;;;;;;4988612;28;20099;-76
2021/07/10 12:22:20;;;;;;;3.50;0.90;;;;;;;;;;4995489;28;20127;-76
2021/07/10 12:24:46;;;;;;;1.42;0.90;;;;;;;;;;4978163;28;20532;-74
2021/07/10 12:27:17;;;;;;;2.17;1.02;;;;;;;;;;4974823;28;20030;-75
2021/07/10 12:29:55;;;;;;;5.65;1.25;;;;;;;;;;4991047;28;20565;-75
2021/07/10 12:32:21;;;;;;;4.60;1.20;;;;;;;;;;4989755;28;20728;-78
2021/07/10 12:34:52;;;;;;;4.47;1.20;;;;;;;;;;4987403;28;20034;-78
2021/07/10 12:37:25;;;;;;;4.50;1.52;;;;;;;;;;4988234;28;20038;-78
2021/07/10 12:39:51;;;;;;;2.58;1.10;;;;;;;;;;4989252;28;20700;-79
2021/07/10 12:42:18;;;;;;;2.28;1.30;;;;;;;;;;4986772;28;20026;-79
2021/07/10 12:44:45;;;;;;;3.00;1.02;;;;;;;;;;4993231;28;20523;-78
2021/07/10 12:47:20;;;;;;;4.22;1.30;;;;;;;;;;5003341;28;20235;-78
2021/07/10 12:49:54;;;;;;;3.22;1.10;;;;;;;;;;4990884;28;20596;-78
2021/07/10 12:52:20;;;;;;;2.35;1.30;;;;;;;;;;4989375;28;20081;-79
2021/07/10 12:54:55;;;;;;;2.22;1.38;;;;;;;;;;4984563;28;20073;-79
2021/07/10 12:57:28;;;;;;;1.77;1.33;;;;;;;;;;4987073;28;20366;-78
2021/07/10 12:59:55;;;;;;;3.75;1.20;;;;;;;;;;4985369;28;20035;-79
2021/07/10 13:02:43;;;;;;;3.58;1.50;;;;;;;;;;4991854;28;20027;-76
2021/07/10 13:05:18;;;;;;;2.85;1.60;;;;;;;;;;4989152;28;20050;-77
2021/07/10 13:07:45;;;;;;;2.72;1.35;;;;;;;;;;4986455;28;20389;-76
2021/07/10 13:10:29;;;;;;;5.15;1.55;;;;;;;;;;4984181;28;20021;-75
2021/07/10 13:13:02;;;;;;;2.85;1.90;;;;;;;;;;4983123;28;20092;-75
2021/07/10 13:15:30;;;;;;;4.18;1.50;;;;;;;;;;4984180;28;20034;-75
2021/07/10 13:18:10;;;;;;;3.35;1.60;;;;;;;;;;4989020;28;20117;-75
2021/07/10 13:20:38;;;;;;;2.08;1.23;;;;;;;;;;5005280;28;20031;-75
2021/07/10 13:23:05;;;;;;;3.10;1.23;;;;;;;;;;4983949;28;20084;-76
2021/07/10 13:25:37;;;;;;;3.30;1.67;;;;;;;;;;4985500;28;20038;-75
2021/07/10 13:28:27;;;;;;;3.85;1.60;;;;;;;;;;4987709;28;20113;-75
2021/07/10 13:30:55;;;;;;;3.90;1.63;;;;;;;;;;4988558;28;20079;-75
2021/07/10 13:33:33;;;;;;;3.95;2.00;;;;;;;;;;4985662;28;20026;-79
2021/07/10 13:36:08;;;;;;;3.28;1.73;;;;;;;;;;4986360;28;20073;-78
2021/07/10 13:38:37;;;;;;;2.83;1.70;;;;;;;;;;4986510;28;20768;-79
2021/07/10 13:41:24;;;;;;;4.03;1.98;;;;;;;;;;4984966;28;20043;-79
2021/07/10 13:43:58;;;;;;;4.28;2.10;;;;;;;;;;4982701;28;20498;-79
2021/07/10 13:46:33;;;;;;;4.05;1.88;;;;;;;;;;4988107;28;20038;-78
2021/07/10 13:49:27;;;;;;;4.18;1.63;;;;;;;;;;4986303;28;20026;-79
2021/07/10 13:51:56;;;;;;;1.98;1.75;;;;;;;;;;4983749;28;20737;-79
2021/07/10 13:54:54;;;;;;;4.65;1.83;;;;;;;;;;4979980;28;20041;-80
2021/07/10 13:57:24;;;;;;;6.15;2.28;;;;;;;;;;4986806;28;20069;-80
2021/07/10 13:59:57;;;;;;;5.30;1.70;;;;;;;;;;4989709;28;20030;-80
2021/07/10 14:02:24;;;;;;;3.95;1.95;;;;;;;;;;4983815;28;20025;-80
2021/07/10 14:05:07;;;;;;;1.70;1.58;;;;;;;;;;4983701;28;20406;-80
2021/07/10 14:07:34;;;;;;;3.30;1.70;;;;;;;;;;4986888;28;20084;-80
2021/07/10 14:10:00;;;;;;;5.47;2.15;;;;;;;;;;4994335;28;20022;-80
2021/07/10 14:12:26;;;;;;;4.10;1.70;;;;;;;;;;4986653;28;20057;-80
2021/07/10 14:14:51;;;;;;;3.97;1.48;;;;;;;;;;4982269;28;20062;-79
2021/07/10 14:17:17;;;;;;;2.30;2.10;;;;;;;;;;4985919;28;20069;-80
2021/07/10 14:19:42;;;;;;;4.43;1.63;;;;;;;;;;4985892;28;20030;-80
2021/07/10 14:22:08;;;;;;;2.60;1.90;;;;;;;;;;4983234;28;20512;-80
2021/07/10 14:24:34;;;;;;;2.75;2.00;;;;;;;;;;4995607;28;20053;-80
2021/07/10 14:26:59;;;;;;;5.03;2.00;;;;;;;;;;4987402;28;20113;-80
2021/07/10 14:29:25;;;;;;;3.17;1.80;;;;;;;;;;4987066;28;20121;-80
2021/07/10 14:31:50;;;;;;;2.58;1.40;;;;;;;;;;4986027;28;20038;-80
2021/07/10 14:34:16;;;;;;;3.00;1.55;;;;;;;;;;4981838;28;20564;-76
2021/07/10 14:36:41;;;;;;;5.22;2.13;;;;;;;;;;4985996;28;20034;-76
2021/07/10 14:39:07;;;;;;;3.08;1.52;;;;;;;;;;4983735;28;20038;-76
2021/07/10 14:41:33;;;;;;;3.03;1.67;;;;;;;;;;4988394;28;20035;-75
2021/07/10 14:43:59;;;;;;;5.15;1.60;;;;;;;;;;4986169;28;20489;-74
2021/07/10 14:46:24;;;;;;;6.35;1.70;;;;;;;;;;4968471;28;20034;-75
2021/07/10 14:48:50;;;;;;;5.05;2.03;;;;;;;;;;4989581;28;20116;-75